Terminal Aerodrome Forecast
Issued by NWS Spokane, WA

Home | Current Version | Previous Version | Text Only | Print | Product List | Glossary On
Versions: 1 2 3 4 5 6 7 8 9 10 11 12
000
FTUS46 KOTX 261120
TAFGEG
TAF
KGEG 261120Z 2612/2712 VRB04KT P6SM FEW060 SCT100
     FM262100 32004KT P6SM SCT060
     FM270200 VRB03KT P6SM FEW250
     FM270800 08003KT P6SM FEW250=

USA.gov is the U.S. government's official web portal to all federal, state and local government web resources and services.